Time;durP1;ratioP1;P1;durP2;ratioP2;P2;SDS_P1;SDS_P2;PMS_P1;PMS_P2;Temp;Humidity;BMP_temperature;BMP_pressure;BME280_temperature;BME280_humidity;BME280_pressure;Samples;Min_cycle;Max_cycle;Signal;HPM_P1;HPM_P2
2022/04/23 00:00:57;;;;;;;24.32;16.00;;;;;;;6.28;77.55;96278.34;1699564;84;26568;-73
2022/04/23 00:03:24;;;;;;;28.95;17.82;;;;;;;6.30;77.58;96274.91;1699633;84;25679;-73
2022/04/23 00:05:51;;;;;;;29.18;19.35;;;;;;;6.31;77.62;96279.23;1699558;84;27337;-77
2022/04/23 00:08:17;;;;;;;29.02;18.07;;;;;;;6.30;77.62;96277.59;1699534;84;25805;-73
2022/04/23 00:10:44;;;;;;;26.40;18.25;;;;;;;6.32;77.68;96274.19;1699512;84;25784;-73
2022/04/23 00:13:10;;;;;;;24.52;16.77;;;;;;;6.33;77.68;96267.28;1699579;84;25684;-73
2022/04/23 00:15:37;;;;;;;27.02;17.27;;;;;;;6.34;77.66;96266.77;1699343;83;25619;-74
2022/04/23 00:18:07;;;;;;;28.50;19.00;;;;;;;6.36;77.65;96269.55;1699749;84;27331;-73
2022/04/23 00:20:34;;;;;;;25.72;17.75;;;;;;;6.37;77.63;96255.62;1699561;84;25665;-72
2022/04/23 00:23:01;;;;;;;26.55;18.73;;;;;;;6.38;77.59;96266.66;1699490;84;25911;-73
2022/04/23 00:25:28;;;;;;;26.65;17.62;;;;;;;6.39;77.60;96266.45;1699527;84;26436;-73
2022/04/23 00:27:55;;;;;;;27.37;18.35;;;;;;;6.37;77.59;96265.00;1699469;84;25738;-73
2022/04/23 00:30:21;;;;;;;29.80;19.07;;;;;;;6.37;77.66;96270.37;1699429;84;27482;-75
2022/04/23 00:32:48;;;;;;;30.72;19.45;;;;;;;6.38;77.67;96259.95;1699494;84;26055;-73
2022/04/23 00:35:17;;;;;;;27.32;18.82;;;;;;;6.40;77.68;96269.95;1699474;84;26743;-73
2022/04/23 00:37:45;;;;;;;26.10;16.95;;;;;;;6.41;77.64;96263.52;1699389;84;25773;-73
2022/04/23 00:40:18;;;;;;;25.57;16.90;;;;;;;6.42;77.61;96261.97;1699524;84;25698;-73
2022/04/23 00:42:51;;;;;;;23.98;16.52;;;;;;;6.43;77.60;96262.80;1699599;84;27450;-73
2022/04/23 00:45:21;;;;;;;26.23;17.57;;;;;;;6.44;77.59;96269.80;1679903;85;25817;-73
2022/04/23 00:47:49;;;;;;;25.00;17.45;;;;;;;6.44;77.61;96257.23;1646857;87;25317;-72
2022/04/23 00:50:20;;;;;;;29.50;18.35;;;;;;;6.43;77.60;96254.75;1646848;87;25849;-73
2022/04/23 00:52:45;;;;;;;28.73;19.60;;;;;;;6.43;77.59;96252.08;1646925;87;25957;-76
2022/04/23 00:55:12;;;;;;;30.97;20.37;;;;;;;6.38;77.61;96243.87;1656465;85;27441;-74
2022/04/23 00:57:39;;;;;;;33.20;22.00;;;;;;;6.32;77.69;96250.89;1695209;84;25673;-73
2022/04/23 01:00:09;;;;;;;34.95;22.73;;;;;;;6.31;77.75;96246.56;1695133;84;25753;-73
2022/04/23 01:02:36;;;;;;;34.55;23.67;;;;;;;6.32;77.83;96246.05;1695289;84;25670;-73
2022/04/23 01:05:09;;;;;;;42.90;27.32;;;;;;;6.35;77.88;96249.65;1695368;84;25777;-74
2022/04/23 01:07:42;;;;;;;43.92;27.90;;;;;;;6.32;77.86;96247.39;1695279;84;27411;-74
2022/04/23 01:10:10;;;;;;;48.40;31.10;;;;;;;6.28;77.90;96250.20;1695285;84;25855;-76
2022/04/23 01:12:39;;;;;;;47.65;30.37;;;;;;;6.25;77.93;96257.33;1694992;84;25865;-76
2022/04/23 01:15:08;;;;;;;49.90;31.93;;;;;;;6.18;77.94;96253.83;1695267;84;26560;-75
2022/04/23 01:17:36;;;;;;;48.10;30.88;;;;;;;6.11;77.99;96257.37;1695282;84;25794;-75
2022/04/23 01:20:10;;;;;;;55.50;32.20;;;;;;;6.09;78.15;96256.75;1695210;84;27402;-73
2022/04/23 01:22:37;;;;;;;51.28;32.00;;;;;;;6.11;78.24;96249.33;1663450;85;25902;-73
2022/04/23 01:25:07;;;;;;;56.65;34.85;;;;;;;6.14;78.21;96252.94;1663779;86;25823;-73
2022/04/23 01:27:34;;;;;;;53.13;32.42;;;;;;;6.12;78.19;96252.31;1663787;86;26467;-75
2022/04/23 01:30:03;;;;;;;54.93;33.33;;;;;;;6.09;78.14;96246.03;1663924;86;25828;-73
2022/04/23 01:32:29;;;;;;;51.83;32.30;;;;;;;6.04;78.19;96247.69;1663654;86;27642;-73
2022/04/23 01:34:56;;;;;;;54.30;34.13;;;;;;;6.04;78.34;96247.69;1663710;86;25862;-75
2022/04/23 01:37:23;;;;;;;51.40;32.33;;;;;;;6.06;78.38;96248.30;1663658;85;25763;-73
2022/04/23 01:39:50;;;;;;;56.18;34.83;;;;;;;6.07;78.38;96249.44;1632056;86;25767;-73
2022/04/23 01:42:20;;;;;;;54.88;33.48;;;;;;;6.05;78.37;96243.46;1639507;86;25867;-73
2022/04/23 01:44:49;;;;;;;54.77;32.85;;;;;;;6.07;78.45;96249.95;1656907;86;27359;-73
2022/04/23 01:47:15;;;;;;;53.10;32.13;;;;;;;6.04;78.45;96253.05;1656831;86;25501;-76
2022/04/23 01:52:13;;;;;;;56.42;34.33;;;;;;;5.92;78.56;96250.19;1643294;87;26547;-73
2022/04/23 01:54:39;;;;;;;55.85;35.00;;;;;;;5.95;78.70;96247.11;1643329;87;25840;-72
2022/04/23 01:57:06;;;;;;;50.03;30.88;;;;;;;5.98;78.76;96248.03;1640604;87;27443;-73
2022/04/23 01:59:33;;;;;;;52.35;31.55;;;;;;;6.02;78.74;96258.64;1640687;87;25801;-73
2022/04/23 02:02:00;;;;;;;53.83;31.97;;;;;;;6.04;78.68;96256.55;1640911;86;25865;-74
2022/04/23 02:04:27;;;;;;;53.65;32.33;;;;;;;6.01;78.67;96256.17;1640736;86;25852;-73
2022/04/23 02:06:53;;;;;;;53.75;32.38;;;;;;;5.98;78.64;96259.26;1640957;86;25833;-73
2022/04/23 02:09:20;;;;;;;49.08;30.27;;;;;;;5.99;78.68;96263.07;1640837;86;27554;-73
2022/04/23 02:11:46;;;;;;;49.98;30.82;;;;;;;5.95;78.63;96261.84;1640666;87;26235;-74
2022/04/23 02:14:13;;;;;;;51.18;31.17;;;;;;;5.93;78.70;96261.22;1640988;86;25371;-73
2022/04/23 02:16:40;;;;;;;49.83;31.37;;;;;;;5.91;78.72;96259.30;1640829;87;25907;-73
2022/04/23 02:19:07;;;;;;;49.65;30.60;;;;;;;5.91;78.72;96267.33;1641479;87;25824;-73
2022/04/23 02:21:33;;;;;;;48.87;31.57;;;;;;;5.91;78.71;96263.83;1643191;87;27514;-73
2022/04/23 02:24:03;;;;;;;48.90;30.55;;;;;;;5.83;78.70;96272.85;1643148;87;25859;-73
2022/04/23 02:26:28;;;;;;;50.30;30.30;;;;;;;5.80;78.79;96274.60;1647896;87;25735;-75
2022/04/23 02:28:55;;;;;;;50.25;30.12;;;;;;;5.75;78.87;96279.27;1648043;85;25731;-75
2022/04/23 02:31:21;;;;;;;50.35;30.72;;;;;;;5.76;78.99;96278.23;1647901;85;25847;-73
2022/04/23 02:33:48;;;;;;;46.37;28.60;;;;;;;5.77;78.99;96287.09;1647617;87;28259;-74
2022/04/23 02:36:15;;;;;;;53.48;30.05;;;;;;;5.75;78.95;96282.45;1647882;86;25790;-73
2022/04/23 02:38:42;;;;;;;50.60;31.00;;;;;;;5.72;78.97;96284.20;1648050;87;25826;-73
2022/04/23 02:41:09;;;;;;;48.42;29.82;;;;;;;5.71;79.03;96286.05;1647805;87;25792;-73
2022/04/23 02:43:38;;;;;;;46.50;30.10;;;;;;;5.70;79.06;96294.29;1647730;87;25901;-75
2022/04/23 02:46:06;;;;;;;49.98;30.23;;;;;;;5.71;79.14;96293.27;1647729;87;27472;-73
2022/04/23 02:48:33;;;;;;;45.55;27.73;;;;;;;5.74;79.16;96291.52;1647424;87;25968;-76
2022/04/23 02:51:00;;;;;;;50.40;30.27;;;;;;;5.76;79.15;96296.98;1647828;85;25791;-73
2022/04/23 02:53:27;;;;;;;49.90;29.55;;;;;;;5.77;79.10;96295.13;1647863;85;25853;-76
2022/04/23 02:55:56;;;;;;;42.95;27.37;;;;;;;5.79;79.08;96295.23;1673483;85;25769;-75
2022/04/23 02:58:26;;;;;;;47.93;28.70;;;;;;;5.79;79.03;96297.09;1687729;85;28179;-73
2022/04/23 03:00:53;;;;;;;45.88;28.92;;;;;;;5.82;79.05;96299.84;1687452;85;25947;-76
2022/04/23 03:03:21;;;;;;;43.00;27.32;;;;;;;5.85;79.02;96299.42;1687536;85;25764;-74
2022/04/23 03:05:49;;;;;;;42.73;27.77;;;;;;;5.85;78.98;96304.78;1656590;86;25715;-74
2022/04/23 03:08:15;;;;;;;44.00;26.90;;;;;;;5.79;78.94;96301.10;1687749;85;25787;-73
2022/04/23 03:10:43;;;;;;;43.17;27.95;;;;;;;5.76;78.97;96298.83;1687634;85;27436;-73
2022/04/23 03:13:10;;;;;;;41.02;27.48;;;;;;;5.73;78.99;96303.26;1687475;85;25689;-76
2022/04/23 03:15:38;;;;;;;42.73;26.73;;;;;;;5.70;78.96;96295.12;1656095;86;25784;-73
2022/04/23 03:18:11;;;;;;;42.38;26.62;;;;;;;5.64;79.06;96293.28;1687589;85;25803;-73
2022/04/23 03:20:41;;;;;;;43.55;27.37;;;;;;;5.63;79.11;96297.50;1687705;84;25425;-73
2022/04/23 03:23:08;;;;;;;40.17;25.30;;;;;;;5.65;79.18;96304.30;1687744;85;27430;-73
2022/04/23 03:25:35;;;;;;;46.23;26.77;;;;;;;5.67;79.20;96301.42;1656352;86;25712;-74
2022/04/23 03:28:02;;;;;;;45.85;27.35;;;;;;;5.71;79.25;96302.13;1687535;84;25697;-74
2022/04/23 03:30:30;;;;;;;46.13;29.60;;;;;;;5.68;79.26;96297.69;1687639;84;26464;-75
2022/04/23 03:32:58;;;;;;;46.28;29.30;;;;;;;5.62;79.18;96305.22;1687731;85;25259;-73
2022/04/23 03:35:25;;;;;;;45.17;28.50;;;;;;;5.62;79.29;96307.39;1687648;85;27486;-73
2022/04/23 03:37:52;;;;;;;47.93;29.63;;;;;;;5.64;79.31;96312.54;1687529;85;25774;-73
2022/04/23 03:40:18;;;;;;;46.95;30.35;;;;;;;5.58;79.26;96322.72;1687602;84;26125;-75
2022/04/23 03:42:48;;;;;;;49.20;30.72;;;;;;;5.57;79.39;96315.72;1687502;84;25795;-73
2022/04/23 03:45:14;;;;;;;46.70;29.42;;;;;;;5.56;79.44;96321.58;1687658;85;25727;-73
2022/04/23 03:47:47;;;;;;;49.75;31.02;;;;;;;5.57;79.46;96325.09;1656554;86;27360;-73
2022/04/23 03:50:15;;;;;;;46.70;30.12;;;;;;;5.59;79.45;96328.39;1687463;85;25780;-73
2022/04/23 03:52:43;;;;;;;46.08;29.00;;;;;;;5.64;79.50;96327.27;1656369;86;25851;-75
2022/04/23 03:55:11;;;;;;;45.28;29.35;;;;;;;5.69;79.46;96324.77;1687555;84;26518;-75
2022/04/23 03:57:48;;;;;;;46.28;29.00;;;;;;;5.73;79.37;96322.00;1663161;86;25494;-72
2022/04/23 04:00:19;;;;;;;43.83;28.12;;;;;;;5.77;79.34;96323.24;1631224;87;28371;-73
2022/04/23 04:02:46;;;;;;;47.43;29.55;;;;;;;5.80;79.27;96318.78;1630886;87;25709;-73
2022/04/23 04:05:13;;;;;;;44.95;28.70;;;;;;;5.79;79.20;96319.84;1601752;88;25820;-73
2022/04/23 04:07:42;;;;;;;47.13;29.37;;;;;;;5.79;79.13;96321.19;1630963;87;25678;-72
2022/04/23 04:10:12;;;;;;;43.98;27.73;;;;;;;5.79;79.04;96317.17;1601607;89;25737;-73
2022/04/23 04:12:38;;;;;;;40.10;27.52;;;;;;;5.80;79.06;96322.80;1630857;87;27569;-73
2022/04/23 04:15:07;;;;;;;38.30;25.72;;;;;;;5.82;79.14;96322.09;1601823;88;25840;-73
2022/04/23 04:17:35;;;;;;;38.17;25.35;;;;;;;5.84;79.10;96317.35;1630744;87;25837;-72
2022/04/23 04:20:04;;;;;;;38.63;26.87;;;;;;;5.85;79.08;96320.34;1601679;89;25877;-72
2022/04/23 04:22:30;;;;;;;36.55;24.72;;;;;;;5.88;79.02;96315.09;1630913;87;25877;-72
2022/04/23 04:24:58;;;;;;;36.38;25.50;;;;;;;5.91;78.96;96320.89;1601722;89;27496;-72
2022/04/23 04:27:25;;;;;;;37.20;23.40;;;;;;;5.97;78.89;96320.05;1630924;87;25597;-76
2022/04/23 04:29:51;;;;;;;36.85;24.98;;;;;;;5.99;78.76;96319.84;1601794;88;25770;-73
2022/04/23 04:32:18;;;;;;;35.33;24.07;;;;;;;6.03;78.66;96324.58;1630693;86;25923;-75
2022/04/23 04:34:45;;;;;;;41.33;25.50;;;;;;;6.06;78.55;96320.13;1602052;88;25882;-74
2022/04/23 04:37:13;;;;;;;36.20;23.38;;;;;;;6.09;78.44;96330.94;1630861;87;28005;-73
2022/04/23 04:39:41;;;;;;;31.52;22.93;;;;;;;6.10;78.33;96329.91;1601671;88;25828;-76
2022/04/23 04:42:11;;;;;;;31.40;22.13;;;;;;;6.05;78.22;96330.53;1630895;87;25892;-75
2022/04/23 04:44:38;;;;;;;34.55;23.60;;;;;;;6.03;78.18;96331.28;1601716;89;25817;-72
2022/04/23 04:47:06;;;;;;;35.50;24.40;;;;;;;6.05;78.22;96334.55;1630843;87;25939;-73
2022/04/23 04:49:33;;;;;;;36.63;24.15;;;;;;;6.07;78.08;96335.16;1601842;88;27392;-75
2022/04/23 04:52:00;;;;;;;33.18;23.10;;;;;;;6.07;78.02;96333.83;1630849;87;25806;-72
2022/04/23 04:54:26;;;;;;;36.60;24.35;;;;;;;6.13;78.07;96340.22;1601680;89;25752;-72
2022/04/23 04:56:54;;;;;;;36.58;24.40;;;;;;;6.18;78.02;96330.19;1655069;84;25910;-74
2022/04/23 04:59:21;;;;;;;31.97;21.48;;;;;;;6.22;77.96;96331.43;1641253;87;25665;-76
2022/04/23 05:01:48;;;;;;;28.45;20.27;;;;;;;6.22;77.89;96336.27;1641296;87;27466;-72
2022/04/23 05:04:15;;;;;;;30.62;21.23;;;;;;;6.22;77.73;96338.12;1640885;87;25762;-74
2022/04/23 05:06:42;;;;;;;30.92;22.20;;;;;;;6.19;77.59;96334.52;1641191;87;25775;-72
2022/04/23 05:09:08;;;;;;;29.57;21.23;;;;;;;6.17;77.47;96342.77;1641279;87;26238;-72
2022/04/23 05:11:35;;;;;;;30.75;21.37;;;;;;;6.19;77.56;96341.22;1641247;87;25722;-73
2022/04/23 05:14:02;;;;;;;30.05;20.75;;;;;;;6.20;77.54;96345.03;1641180;87;27560;-73
2022/04/23 05:16:28;;;;;;;36.55;22.13;;;;;;;6.22;77.48;96346.17;1640885;87;25527;-73
2022/04/23 05:18:55;;;;;;;29.87;20.02;;;;;;;6.25;77.44;96345.76;1641321;87;25826;-75
2022/04/23 05:21:22;;;;;;;30.25;20.92;;;;;;;6.28;77.46;96344.80;1641163;87;26356;-72
2022/04/23 05:23:48;;;;;;;28.00;19.50;;;;;;;6.32;77.30;96339.84;1641200;87;25744;-74
2022/04/23 05:26:15;;;;;;;26.17;19.30;;;;;;;6.37;77.27;96345.41;1641365;87;28084;-73
2022/04/23 05:28:42;;;;;;;30.52;21.23;;;;;;;6.41;77.18;96348.78;1641070;87;25817;-75
2022/04/23 05:31:09;;;;;;;25.30;19.05;;;;;;;6.47;77.13;96353.84;1641318;87;25699;-73
2022/04/23 05:33:36;;;;;;;28.20;19.95;;;;;;;6.50;76.98;96358.27;1641286;87;25822;-72
2022/04/23 05:36:06;;;;;;;28.27;20.32;;;;;;;6.52;76.87;96357.23;1641269;87;25709;-73
2022/04/23 05:38:36;;;;;;;28.95;20.62;;;;;;;6.57;76.87;96360.09;1581248;90;27501;-73
2022/04/23 05:41:04;;;;;;;35.17;22.00;;;;;;;6.62;76.85;96358.95;1581231;90;25316;-72
2022/04/23 05:43:30;;;;;;;33.90;22.40;;;;;;;6.68;76.82;96369.63;1581237;90;25858;-73
2022/04/23 05:45:59;;;;;;;36.83;24.27;;;;;;;6.75;76.74;96371.80;1581210;90;25937;-73
2022/04/23 05:48:26;;;;;;;33.25;23.55;;;;;;;6.82;76.71;96372.58;1581295;90;26174;-73
2022/04/23 05:50:53;;;;;;;25.85;18.75;;;;;;;6.88;76.73;96370.09;1581167;90;27396;-74
2022/04/23 05:53:22;;;;;;;21.00;15.83;;;;;;;6.96;76.60;96369.84;1581191;90;25826;-72
2022/04/23 05:55:49;;;;;;;23.42;16.02;;;;;;;7.00;76.41;96369.20;1581233;89;25755;-75
2022/04/23 05:58:16;;;;;;;20.15;15.18;;;;;;;7.03;76.15;96372.78;1595729;89;25944;-73
2022/04/23 06:00:42;;;;;;;20.88;15.48;;;;;;;7.09;76.14;96372.45;1628944;88;25878;-73
2022/04/23 06:03:09;;;;;;;20.35;14.30;;;;;;;7.15;76.04;96378.30;1628922;88;28172;-73
2022/04/23 06:05:35;;;;;;;21.95;15.45;;;;;;;7.20;75.83;96382.00;1628812;88;25861;-74
2022/04/23 06:08:02;;;;;;;18.67;13.85;;;;;;;7.25;75.69;96377.30;1629006;88;25836;-75
2022/04/23 06:10:29;;;;;;;18.45;13.55;;;;;;;7.31;75.57;96387.20;1628912;88;26427;-73
2022/04/23 06:12:55;;;;;;;21.80;14.13;;;;;;;7.33;75.22;96378.41;1629080;88;25960;-73
2022/04/23 06:15:22;;;;;;;19.12;13.90;;;;;;;7.37;75.17;96379.61;1628617;88;27437;-73
2022/04/23 06:17:49;;;;;;;20.00;13.30;;;;;;;7.44;75.24;96379.06;1628868;88;25985;-73
2022/04/23 06:20:16;;;;;;;15.20;11.85;;;;;;;7.50;75.13;96380.87;1628883;88;25421;-74
2022/04/23 06:22:43;;;;;;;15.35;12.07;;;;;;;7.53;74.84;96380.44;1628683;88;25738;-73
2022/04/23 06:25:09;;;;;;;14.40;10.68;;;;;;;7.57;74.82;96383.52;1629024;88;25868;-73
2022/04/23 06:27:39;;;;;;;13.93;11.08;;;;;;;7.59;74.57;96387.64;1629079;88;27608;-76
2022/04/23 06:30:09;;;;;;;17.65;11.93;;;;;;;7.65;74.52;96385.11;1629067;88;25295;-75
2022/04/23 06:32:39;;;;;;;14.18;10.82;;;;;;;7.69;74.33;96386.33;1629031;88;25915;-73
2022/04/23 06:35:07;;;;;;;12.30;9.55;;;;;;;7.69;74.05;96386.33;1652334;84;25729;-73
2022/04/23 06:37:44;;;;;;;11.35;8.90;;;;;;;7.71;73.89;96382.39;1663933;86;26740;-72
2022/04/23 06:40:12;;;;;;;14.58;10.23;;;;;;;7.77;73.78;96382.84;1654770;86;26980;-73
2022/04/23 06:42:40;;;;;;;13.38;10.32;;;;;;;7.84;73.93;96382.81;1663684;86;25712;-73
2022/04/23 06:45:08;;;;;;;12.07;9.25;;;;;;;7.94;73.90;96391.20;1654629;85;25772;-73
2022/04/23 06:47:35;;;;;;;10.45;8.23;;;;;;;8.01;73.72;96381.73;1663846;86;25796;-76
2022/04/23 06:50:01;;;;;;;9.28;8.18;;;;;;;8.13;73.53;96384.00;1654586;86;25457;-73
2022/04/23 06:52:28;;;;;;;10.88;8.73;;;;;;;8.23;73.29;96382.97;1663900;86;27454;-73
2022/04/23 06:54:55;;;;;;;11.28;9.18;;;;;;;8.27;72.89;96385.00;1654186;86;25893;-73
2022/04/23 06:57:23;;;;;;;12.23;9.00;;;;;;;8.32;72.72;96381.69;1670039;85;25768;-73
2022/04/23 06:59:51;;;;;;;11.97;9.10;;;;;;;8.35;72.27;96380.41;1695522;84;25740;-73
2022/04/23 07:02:20;;;;;;;14.07;9.78;;;;;;;8.41;72.17;96380.87;1690105;84;26278;-73
2022/04/23 07:04:47;;;;;;;13.38;10.35;;;;;;;8.47;72.18;96381.31;1684093;85;28158;-74
2022/04/23 07:07:14;;;;;;;12.95;9.65;;;;;;;8.52;72.11;96374.23;1699398;84;25782;-73
2022/04/23 07:09:40;;;;;;;13.40;10.03;;;;;;;8.60;72.08;96377.97;1699569;84;25723;-73
2022/04/23 07:12:09;;;;;;;11.68;9.10;;;;;;;8.68;71.94;96378.20;1699308;84;26556;-73
2022/04/23 07:14:36;;;;;;;9.98;7.87;;;;;;;8.73;71.40;96381.03;1699497;84;25746;-75
2022/04/23 07:17:03;;;;;;;10.90;8.68;;;;;;;8.73;70.67;96379.69;1684153;85;27533;-73
2022/04/23 07:19:30;;;;;;;12.58;8.28;;;;;;;8.73;70.70;96383.72;1684044;85;25486;-73
2022/04/23 07:21:57;;;;;;;10.78;8.58;;;;;;;8.76;70.71;96385.97;1684135;85;25650;-73
2022/04/23 07:24:23;;;;;;;12.30;9.85;;;;;;;8.75;70.70;96384.32;1684090;85;25802;-73
2022/04/23 07:26:50;;;;;;;10.95;8.38;;;;;;;8.86;70.86;96385.44;1684249;85;25782;-75
2022/04/23 07:29:17;;;;;;;8.75;7.35;;;;;;;8.94;70.50;96380.56;1699480;84;27603;-73
2022/04/23 07:31:43;;;;;;;11.53;9.45;;;;;;;9.03;70.40;96378.41;1699485;84;25695;-74
2022/04/23 07:39:40;;;;;;;10.20;8.35;;;;;;;9.57;69.36;96373.39;1699638;84;25843;-75
2022/04/23 07:42:07;;;;;;;9.35;6.67;;;;;;;9.98;69.08;96370.39;1699453;84;28048;-74
2022/04/23 07:44:34;;;;;;;9.95;7.70;;;;;;;10.34;68.62;96371.56;1699449;83;25774;-73
2022/04/23 07:47:00;;;;;;;10.60;8.05;;;;;;;10.81;68.21;96369.62;1699650;83;25761;-76
2022/04/23 07:49:28;;;;;;;9.08;7.95;;;;;;;11.23;66.85;96365.89;1699580;84;26255;-73
2022/04/23 07:51:54;;;;;;;10.68;8.15;;;;;;;11.70;66.99;96374.08;1699603;84;25804;-74
2022/04/23 07:54:21;;;;;;;8.33;7.20;;;;;;;12.21;65.94;96370.88;1684207;85;27446;-73
2022/04/23 07:56:48;;;;;;;10.53;8.40;;;;;;;12.12;65.06;96368.30;1679860;85;25524;-73
2022/04/23 07:59:14;;;;;;;11.33;8.68;;;;;;;12.51;65.60;96370.00;1663000;86;25884;-77
2022/04/23 08:01:41;;;;;;;9.25;7.45;;;;;;;12.89;64.61;96369.72;1648769;87;26494;-74
2022/04/23 08:04:07;;;;;;;9.00;7.25;;;;;;;13.14;63.53;96372.78;1648854;87;25755;-72
2022/04/23 08:06:35;;;;;;;9.53;7.20;;;;;;;12.71;62.34;96366.75;1648744;87;27601;-75
2022/04/23 08:09:02;;;;;;;8.30;7.20;;;;;;;12.43;62.28;96365.02;1648485;87;25320;-74
2022/04/23 08:11:29;;;;;;;7.78;6.50;;;;;;;12.31;62.51;96366.18;1648514;87;25771;-74
2022/04/23 08:13:56;;;;;;;6.83;6.15;;;;;;;12.48;61.94;96362.38;1648451;87;25904;-74
2022/04/23 08:16:25;;;;;;;7.25;6.45;;;;;;;12.70;61.79;96360.23;1648503;87;25944;-74
2022/04/23 08:18:51;;;;;;;8.60;6.95;;;;;;;12.73;61.32;96358.38;1648518;87;27417;-74
2022/04/23 08:21:18;;;;;;;7.50;6.50;;;;;;;12.54;60.91;96355.98;1648464;87;25683;-74
2022/04/23 08:23:45;;;;;;;8.00;6.47;;;;;;;12.56;60.83;96353.81;1648333;87;25290;-75
2022/04/23 08:26:11;;;;;;;8.38;6.95;;;;;;;12.49;60.35;96353.19;1648265;87;25776;-74
2022/04/23 08:31:23;;;;;;;8.98;6.67;;;;;;;12.28;60.39;96355.31;1649860;86;28124;-76
2022/04/23 08:33:58;;;;;;;6.53;5.90;;;;;;;12.13;60.02;96353.72;1660338;86;26021;-73
2022/04/23 08:36:35;;;;;;;6.90;6.17;;;;;;;12.00;60.01;96355.39;1660476;86;25831;-75
2022/04/23 08:39:00;;;;;;;6.67;5.42;;;;;;;11.90;60.13;96362.28;1600679;89;26484;-73
2022/04/23 08:41:29;;;;;;;5.85;5.28;;;;;;;12.03;60.19;96361.14;1600626;89;26500;-74
2022/04/23 08:44:05;;;;;;;6.78;5.50;;;;;;;12.19;60.03;96355.45;1600694;89;28190;-74
2022/04/23 08:46:37;;;;;;;5.87;5.30;;;;;;;12.79;59.83;96353.34;1600539;89;26575;-74
2022/04/23 08:49:16;;;;;;;5.67;5.12;;;;;;;13.51;59.43;96358.56;1554655;92;25819;-75
2022/04/23 08:51:52;;;;;;;5.47;4.83;;;;;;;14.28;58.83;96354.09;1554759;92;25878;-74
2022/04/23 08:54:18;;;;;;;5.85;5.25;;;;;;;14.36;56.87;96350.91;1554674;92;25823;-74
2022/04/23 08:56:46;;;;;;;5.22;4.72;;;;;;;14.04;56.44;96357.16;1554858;92;27085;-77
2022/04/23 08:59:15;;;;;;;6.80;5.08;;;;;;;13.80;56.46;96355.86;1543365;91;25812;-74
2022/04/23 09:01:44;;;;;;;5.58;5.08;;;;;;;13.24;56.33;96360.70;1543863;92;25863;-75
2022/04/23 09:04:12;;;;;;;5.70;5.20;;;;;;;12.94;56.71;96354.87;1543862;92;25880;-73
2022/04/23 09:06:45;;;;;;;6.75;6.05;;;;;;;12.84;56.73;96353.39;1543895;92;25867;-76
2022/04/23 09:09:25;;;;;;;7.22;5.15;;;;;;;13.17;57.21;96349.22;1533543;92;27591;-73
2022/04/23 09:11:58;;;;;;;8.00;6.53;;;;;;;13.49;56.82;96348.51;1550382;91;25313;-74
2022/04/23 09:14:32;;;;;;;8.13;6.67;;;;;;;13.71;56.56;96350.63;1550519;92;25853;-74
2022/04/23 09:25:38;;;;;;;6.55;5.80;;;;;;;15.24;55.28;96350.59;1501354;95;26142;-74
2022/04/23 09:28:20;;;;;;;15.83;6.15;;;;;;;15.43;54.31;96355.02;1501505;95;25855;-75
2022/04/23 09:30:49;;;;;;;7.95;6.03;;;;;;;15.21;53.61;96344.34;1501618;93;25953;-74
2022/04/23 09:33:17;;;;;;;7.55;6.25;;;;;;;14.88;53.40;96340.64;1501623;93;25799;-73
2022/04/23 09:36:03;;;;;;;6.92;6.12;;;;;;;14.65;53.63;96341.88;1497078;94;28139;-75
2022/04/23 09:38:31;;;;;;;7.00;5.87;;;;;;;14.50;53.42;96338.53;1515367;92;25961;-74
2022/04/23 09:41:15;;;;;;;5.97;5.35;;;;;;;14.41;53.46;96337.39;1515433;92;25910;-75
2022/04/23 09:43:32;;;;;;;6.67;5.50;;;;;;;14.24;52.51;96339.42;1515774;91;26699;-74
2022/04/23 09:46:05;;;;;;;6.90;6.22;;;;;;;13.76;52.60;96339.84;1546506;89;25952;-74
2022/04/23 09:48:32;;;;;;;6.62;5.92;;;;;;;13.76;53.48;96337.13;1533263;91;27486;-76
2022/04/23 09:51:00;;;;;;;7.50;6.47;;;;;;;13.83;53.65;96340.97;1533103;91;25933;-74
2022/04/23 09:53:27;;;;;;;7.03;6.33;;;;;;;13.95;53.53;96345.16;1533187;91;25872;-75
2022/04/23 09:56:00;;;;;;;7.05;6.25;;;;;;;13.99;52.65;96340.86;1533033;92;25714;-73
2022/04/23 09:58:29;;;;;;;;;;;;;;;14.13;53.25;96344.50;1541841;92;25778;-74
2022/04/23 10:00:57;;;;;;;7.35;5.70;;;;;;;14.53;53.78;96342.63;1539802;92;27555;-74
2022/04/23 10:03:33;;;;;;;7.03;6.33;;;;;;;15.01;53.68;96336.91;1539998;92;25702;-75
2022/04/23 10:08:35;;;;;;;7.10;6.03;;;;;;;14.88;52.06;96336.57;1542666;91;27141;-73
2022/04/23 10:11:21;;;;;;;6.15;5.55;;;;;;;14.71;52.20;96342.20;1542908;91;26074;-74
2022/04/23 10:13:53;;;;;;;6.37;5.78;;;;;;;14.68;51.58;96348.16;1542747;91;27579;-75
2022/04/23 10:16:21;;;;;;;6.55;5.50;;;;;;;14.46;51.52;96347.48;1494434;95;33259;-74
2022/04/23 10:18:48;;;;;;;5.50;5.00;;;;;;;14.33;51.43;96349.53;1511725;92;25396;-74
2022/04/23 10:21:35;;;;;;;5.35;4.85;;;;;;;14.27;51.57;96349.73;1540340;92;25879;-74
2022/04/23 10:24:27;;;;;;;5.62;5.00;;;;;;;14.35;51.62;96357.42;1520107;94;25813;-74
2022/04/23 10:27:07;;;;;;;5.95;5.10;;;;;;;14.54;51.54;96351.87;1486760;95;27172;-74
2022/04/23 10:29:31;;;;;;;6.45;5.20;;;;;;;15.00;50.83;96356.19;1460786;96;25418;-76
2022/04/23 10:32:18;;;;;;;4.92;4.45;;;;;;;15.23;50.62;96347.59;1487007;95;26863;-75
2022/04/23 10:34:45;;;;;;;5.87;4.95;;;;;;;15.44;50.65;96341.16;1486802;95;25898;-73
2022/04/23 10:37:28;;;;;;;5.58;5.08;;;;;;;15.41;50.03;96341.69;1486775;95;25940;-73
2022/04/23 10:40:00;;;;;;;7.15;5.08;;;;;;;15.35;50.03;96342.73;1486928;95;27414;-74
2022/04/23 10:42:28;;;;;;;5.20;4.70;;;;;;;15.31;49.75;96341.66;1486940;95;33120;-74
2022/04/23 10:44:57;;;;;;;6.90;4.97;;;;;;;15.23;49.50;96351.67;1491230;95;25902;-74
2022/04/23 10:47:34;;;;;;;6.47;5.00;;;;;;;15.29;49.34;96348.45;1501186;95;25867;-74
2022/04/23 10:50:21;;;;;;;5.45;4.85;;;;;;;15.20;49.39;96339.99;1501330;95;25864;-75
2022/04/23 10:52:55;;;;;;;7.00;6.03;;;;;;;15.18;48.75;96348.95;1501325;95;27513;-75
2022/04/23 10:55:22;;;;;;;5.67;4.97;;;;;;;14.83;49.04;96340.09;1528935;91;25814;-75
2022/04/23 10:57:54;;;;;;;6.10;5.03;;;;;;;14.65;49.50;96341.34;1556609;91;25667;-74
2022/04/23 11:00:23;;;;;;;6.55;5.40;;;;;;;14.56;49.75;96337.49;1561419;91;25892;-75
2022/04/23 11:03:00;;;;;;;5.97;5.37;;;;;;;14.67;49.84;96341.91;1550096;92;25469;-75
2022/04/23 11:14:27;;;;;;;5.35;4.50;;;;;;;15.83;48.70;96333.90;1601604;88;25820;-75
2022/04/23 11:16:55;;;;;;;5.58;4.90;;;;;;;16.26;48.82;96338.56;1611084;89;25818;-75
2022/04/23 11:19:22;;;;;;;5.83;5.05;;;;;;;16.33;47.69;96349.98;1610660;89;27582;-74
2022/04/23 11:21:49;;;;;;;5.92;5.35;;;;;;;16.19;47.70;96353.25;1610613;89;25333;-73
2022/04/23 11:24:16;;;;;;;6.17;5.03;;;;;;;16.12;47.58;96352.72;1691479;81;25705;-73
2022/04/23 11:26:45;;;;;;;5.97;5.10;;;;;;;16.07;47.54;96352.70;1699418;84;25721;-75
2022/04/23 11:29:13;;;;;;;6.08;5.40;;;;;;;16.03;47.39;96348.91;1684003;85;26010;-75
2022/04/23 11:31:43;;;;;;;5.55;5.05;;;;;;;15.95;47.13;96345.34;1683945;85;28230;-74
2022/04/23 11:34:13;;;;;;;5.33;4.83;;;;;;;16.26;47.19;96341.28;1680234;85;25712;-74
2022/04/23 11:36:39;;;;;;;8.85;5.28;;;;;;;16.65;47.26;96336.09;1699455;84;26042;-74
2022/04/23 11:39:11;;;;;;;5.62;5.12;;;;;;;16.97;47.16;96325.64;1699412;84;25663;-74
2022/04/23 11:41:39;;;;;;;5.95;5.37;;;;;;;17.41;47.71;96339.36;1699697;84;25699;-76
2022/04/23 11:46:55;;;;;;;6.22;4.67;;;;;;;17.57;45.50;96335.46;1632842;87;25885;-76
2022/04/23 11:49:30;;;;;;;5.20;4.70;;;;;;;17.28;45.00;96329.05;1632833;87;25848;-74
2022/04/23 11:52:03;;;;;;;5.45;4.50;;;;;;;17.16;45.13;96326.65;1632624;87;25789;-73
2022/04/23 11:54:37;;;;;;;;;;;;;;;17.00;44.94;96329.73;1635324;87;25861;-73
2022/04/23 11:57:09;;;;;;;6.30;5.67;;;;;;;16.93;44.10;96326.73;1632776;87;28119;-75
2022/04/23 11:59:45;;;;;;;4.97;4.45;;;;;;;16.64;44.95;96326.29;1629015;87;25803;-74
2022/04/23 12:02:23;;;;;;;6.72;4.92;;;;;;;16.66;45.24;96330.38;1628494;88;25975;-74
2022/04/23 12:04:59;;;;;;;5.28;4.72;;;;;;;17.11;45.59;96325.88;1628488;88;26610;-74
2022/04/23 12:07:27;;;;;;;4.85;4.33;;;;;;;17.16;43.41;96328.56;1628773;88;25876;-76
2022/04/23 12:09:59;;;;;;;6.05;4.55;;;;;;;17.22;44.25;96322.00;1628723;88;28281;-75